Stations météo

réclame
Mon MeteoGroup
Lyneham, Grande-Bretagne (3740): Température de l'air & dewpoint: 14.09.2018 17:00:00 - 20.09.2018 17:00:00 (BST)Lyneham, Grande-Bretagne (3740): Température de l'air -20cm & Température de l'air -100cm: 14.09.2018 17:00:00 - 20.09.2018 17:00:00 (BST)Lyneham, Grande-Bretagne (3740): Vitesse du vent & gusts: 14.09.2018 17:00:00 - 20.09.2018 17:00:00 (BST)Lyneham, Grande-Bretagne (3740): Direction du vent: 14.09.2018 17:00:00 - 20.09.2018 17:00:00 (BST)Lyneham, Grande-Bretagne (3740): reduced air pressure: 14.09.2018 17:00:00 - 20.09.2018 17:00:00 (BST)Lyneham, Grande-Bretagne (3740): Ensoleillement: 14.09.2018 17:00:00 - 20.09.2018 17:00:00 (BST)Lyneham, Grande-Bretagne (3740): Quantités de précipitations: 14.09.2018 17:00:00 - 20.09.2018 17:00:00 (BST)
Date & Time tt [°C] td [°C] tt -20cm [°C] tt -100cm [°C] ff [km/h] ff [knt] fx [km/h] fx [knt] dd ppp [hPa] sd [min] rr [mm]
20.09.2018 17:00:00 18,0 14,9 - - 29 16 61 33 SSW 1005,1 0 0,0
20.09.2018 16:00:00 17,9 14,5 - - 26 14 61 33 SSW 1006,3 0 0,0
20.09.2018 15:00:00 18,2 14,5 - - 29 16 59 32 SSW 1007,0 0 0,0
20.09.2018 14:00:00 17,5 14,6 - - 28 15 57 31 SSW 1008,0 0 0,0
20.09.2018 13:00:00 16,8 15,4 - - 24 13 46 25 SSW 1008,2 0 0,0
20.09.2018 12:00:00 16,8 15,2 - - 22 12 - - SSW 1009,2 0 0,0
20.09.2018 11:00:00 16,4 15,6 - - 16 9 - - SSW 1010,0 0 0,0
20.09.2018 10:00:00 16,3 15,7 14,4 15,0 18 10 - - SSW 1010,5 0 0,2
20.09.2018 09:00:00 14,8 14,4 - - 9 5 - - SW 1010,7 0 1,2
20.09.2018 08:00:00 14,0 12,2 - - 16 9 50 27 W 1011,0 0 0,2
20.09.2018 07:00:00 16,3 14,7 - - 22 12 - - SSW 1010,3 0 0,0
20.09.2018 06:00:00 15,7 15,3 - - 21 11 - - SSW 1010,2 0 0,0
20.09.2018 05:00:00 12,7 12,6 - - 5 3 - - SSE 1011,1 0 0,0
20.09.2018 04:00:00 11,9 11,8 - - 5 3 - - NNW 1012,1 0 1,4
20.09.2018 03:00:00 12,4 12,3 - - 11 6 - - NW 1012,2 0 1,2
20.09.2018 02:00:00 12,4 12,3 - - 5 3 - - WSW 1012,6 0 0,2
20.09.2018 01:00:00 12,4 12,3 - - 8 4 - - WSW 1013,3 - 0,6
20.09.2018 00:00:00 12,4 12,2 - - 9 5 - - WSW 1014,0 0 0,4
19.09.2018 23:00:00 12,6 12,3 - - 16 9 - - W 1014,3 0 0,6
19.09.2018 22:00:00 13,5 13,1 - - 8 4 - - WSW 1014,1 0 0,0
19.09.2018 21:00:00 13,4 12,8 - - 11 6 - - WSW 1014,1 0 0,2
19.09.2018 20:00:00 13,8 12,9 - - 13 7 - - W 1014,0 0 0,0
19.09.2018 19:00:00 14,5 13,0 - - 24 13 - - W 1013,2 0 0,0
19.09.2018 18:00:00 14,9 13,8 - - 21 11 - - WSW 1012,4 0 0,2
19.09.2018 17:00:00 15,6 14,5 - - 29 16 50 27 W 1011,5 0 0,6
19.09.2018 16:00:00 19,4 14,3 - - 24 13 54 29 SW 1010,3 0 0,0
19.09.2018 15:00:00 20,3 13,3 - - 28 15 52 28 SW 1010,1 12 0,0
19.09.2018 14:00:00 21,5 13,9 - - 34 18 57 31 SW 1009,8 48 0,0
19.09.2018 13:00:00 21,0 13,0 - - 34 18 65 35 SW 1009,6 54 0,0
19.09.2018 12:00:00 19,9 13,0 - - 35 19 63 34 SW 1009,7 54 0,0
19.09.2018 11:00:00 18,7 13,6 - - 29 16 55 30 SSW 1009,7 18 0,0
19.09.2018 10:00:00 18,5 14,1 14,5 15,0 28 15 50 27 SSW 1009,7 42 0,0
19.09.2018 09:00:00 17,4 14,0 - - 28 15 52 28 SW 1009,9 42 0,0
19.09.2018 08:00:00 16,3 13,9 - - 22 12 46 25 SSW 1009,9 0 0,0
19.09.2018 07:00:00 15,4 13,4 - - 18 10 - - SSW 1010,1 0 0,0
19.09.2018 06:00:00 15,3 13,7 - - 21 11 - - SSW 1010,3 0 0,0
19.09.2018 05:00:00 15,7 14,0 - - 16 9 - - SSW 1010,2 0 0,0
19.09.2018 04:00:00 15,5 14,3 - - 11 6 - - SSW 1010,6 0 0,0
19.09.2018 03:00:00 16,2 14,2 - - 15 8 - - SW 1010,9 0 0,0
19.09.2018 02:00:00 16,3 14,9 - - 18 10 - - SW 1011,0 0 0,0
19.09.2018 01:00:00 16,8 14,2 - - 16 9 - - SSW 1010,8 - 0,0
19.09.2018 00:00:00 16,9 13,9 - - 21 11 - - SSW 1010,8 0 0,0
18.09.2018 23:00:00 16,8 14,0 - - 18 10 - - SSW 1011,2 0 0,0
18.09.2018 22:00:00 17,0 14,2 - - 18 10 - - SSW 1011,1 0 0,0
18.09.2018 21:00:00 17,0 14,2 - - 18 10 - - SSW 1010,9 0 0,0
18.09.2018 20:00:00 17,3 14,2 - - 21 11 - - SSW 1010,6 0 0,0
18.09.2018 19:00:00 17,7 14,2 - - 21 11 - - SSW 1010,1 12 0,0
18.09.2018 18:00:00 18,4 14,2 - - 21 11 - - SSW 1010,0 0 0,0
18.09.2018 17:00:00 18,8 14,2 - - 21 11 46 25 SSW 1010,1 18 0,0
18.09.2018 16:00:00 18,6 14,6 - - 22 12 - - SSW 1010,0 6 0,0
18.09.2018 15:00:00 18,9 13,8 - - 18 10 - - SSW 1009,8 0 0,0
18.09.2018 14:00:00 19,7 13,1 - - 22 12 - - SW 1009,2 0 0,0
18.09.2018 13:00:00 18,3 13,4 - - 21 11 - - SW 1009,1 0 0,0
18.09.2018 12:00:00 17,7 12,2 - - 21 11 48 26 SW 1008,7 0 0,0
18.09.2018 11:00:00 16,7 11,4 - - 26 14 50 27 WSW 1008,1 0 0,0
18.09.2018 10:00:00 16,0 12,2 14,5 15,0 28 15 - - SW 1007,0 0 0,0
18.09.2018 09:00:00 15,4 14,1 - - 26 14 48 26 SW 1005,9 0 0,2
18.09.2018 08:00:00 16,8 14,4 - - 29 16 54 29 SW 1004,0 0 0,0
18.09.2018 07:00:00 16,4 14,8 - - 24 13 55 30 SSW 1003,4 0 0,0
18.09.2018 06:00:00 16,7 14,6 - - 24 13 52 28 SSW 1002,7 0 0,0
18.09.2018 05:00:00 17,2 14,9 - - 26 14 59 32 SSW 1002,6 0 0,0
18.09.2018 04:00:00 17,4 15,5 - - 28 15 50 27 SSW 1002,4 0 0,0
18.09.2018 03:00:00 18,3 15,0 - - 29 16 55 30 SSW 1003,1 0 0,0
18.09.2018 02:00:00 16,7 14,1 - - 21 11 - - S 1004,2 0 0,0
18.09.2018 01:00:00 15,4 12,1 - - 15 8 - - S 1005,3 - 0,0
18.09.2018 00:00:00 15,4 11,3 - - 13 7 - - S 1005,9 0 0,0
17.09.2018 23:00:00 16,1 10,9 - - 16 9 - - S 1006,3 0 0,0
17.09.2018 22:00:00 15,7 10,7 - - 15 8 - - SSE 1007,1 0 0,0
17.09.2018 21:00:00 16,0 11,0 - - 16 9 - - SSE 1008,1 0 0,0
17.09.2018 20:00:00 17,7 10,8 - - 21 11 - - S 1008,6 18 0,0
17.09.2018 19:00:00 19,4 11,0 - - 18 10 - - S 1009,1 60 0,0
17.09.2018 18:00:00 21,1 9,3 - - 22 12 - - S 1009,2 60 0,0
17.09.2018 17:00:00 21,6 8,6 - - 21 11 - - S 1009,8 60 0,0
17.09.2018 16:00:00 22,6 10,2 - - 18 10 - - S 1010,6 60 0,0
17.09.2018 15:00:00 22,1 12,1 - - 22 12 - - S 1011,7 60 0,0
17.09.2018 14:00:00 21,3 15,2 - - 21 11 - - S 1012,6 18 0,0
17.09.2018 13:00:00 19,4 16,0 - - 18 10 - - S 1013,5 0 0,0
17.09.2018 12:00:00 18,9 15,9 - - 18 10 - - SSW 1014,2 0 0,0
17.09.2018 11:00:00 18,1 16,3 - - 15 8 - - S 1014,8 0 0,0
17.09.2018 10:00:00 17,5 16,3 14,4 15,0 15 8 - - S 1015,0 0 0,0
17.09.2018 09:00:00 17,0 16,0 - - 16 9 - - S 1015,3 0 0,0
17.09.2018 08:00:00 16,6 15,9 - - 16 9 - - S 1015,3 0 0,0
17.09.2018 07:00:00 16,5 15,9 - - 15 8 - - S 1015,3 0 0,0
17.09.2018 06:00:00 16,6 16,1 - - 13 7 - - S 1015,4 0 0,0
17.09.2018 05:00:00 16,8 16,2 - - 11 6 - - SSW 1015,7 0 0,0
17.09.2018 04:00:00 16,7 16,3 - - 13 7 - - S 1016,0 0 0,0
17.09.2018 03:00:00 16,7 16,3 - - 13 7 - - SSW 1016,2 0 0,0
17.09.2018 02:00:00 16,5 16,1 - - 11 6 - - SSW 1016,4 0 0,2
17.09.2018 01:00:00 16,6 15,8 - - 11 6 - - S 1017,0 - -
17.09.2018 00:00:00 16,8 15,6 - - 11 6 - - S 1017,1 0 0,0
16.09.2018 23:00:00 16,9 15,7 - - 13 7 - - SSW 1017,4 0 0,0
16.09.2018 22:00:00 16,8 15,4 - - 15 8 - - S 1017,0 0 0,0
16.09.2018 21:00:00 17,2 15,3 - - 11 6 - - SSW 1017,2 0 0,0
16.09.2018 20:00:00 17,4 15,2 - - 13 7 - - SSW 1017,1 0 0,0
16.09.2018 19:00:00 18,5 15,0 - - 15 8 - - SSW 1016,6 24 0,0
16.09.2018 18:00:00 19,3 15,1 - - 15 8 - - SW 1016,4 12 0,0
16.09.2018 17:00:00 19,7 14,7 - - 15 8 - - SW 1016,4 12 0,0
16.09.2018 16:00:00 19,7 14,5 - - 18 10 - - SSW 1016,4 0 0,0
16.09.2018 15:00:00 19,0 14,1 - - 16 9 - - SW 1016,8 0 0,0
16.09.2018 14:00:00 19,7 14,2 - - 24 13 - - SW 1016,9 24 0,0
16.09.2018 13:00:00 20,5 14,1 - - 21 11 - - SSW 1016,6 48 0,0
16.09.2018 12:00:00 19,2 13,0 - - 22 12 - - SSW 1017,2 36 0,0
16.09.2018 11:00:00 17,0 12,8 - - 16 9 - - SSW 1017,6 0 0,0
16.09.2018 10:00:00 16,3 12,8 13,7 15,2 16 9 - - SSW 1017,9 0 0,0
16.09.2018 09:00:00 14,7 13,3 - - 18 10 - - S 1017,5 12 0,0
16.09.2018 08:00:00 13,6 12,7 - - 15 8 - - SSW 1017,7 0 0,0
16.09.2018 07:00:00 12,9 11,9 - - 13 7 - - S 1017,8 0 0,0
16.09.2018 06:00:00 12,5 11,4 - - 9 5 - - S 1018,1 0 0,0
16.09.2018 05:00:00 12,6 11,9 - - 9 5 - - S 1018,8 0 0,0
16.09.2018 04:00:00 12,4 11,4 - - 11 6 - - S 1019,2 0 0,0
16.09.2018 03:00:00 12,4 10,9 - - 11 6 - - S 1020,2 0 0,0
16.09.2018 02:00:00 12,8 10,8 - - 15 8 - - SSW 1020,8 0 0,0
16.09.2018 01:00:00 12,7 11,3 - - 13 7 - - S 1021,3 - 0,0
16.09.2018 00:00:00 12,8 11,0 - - 8 4 - - S 1022,1 0 0,0
15.09.2018 23:00:00 13,2 10,7 - - 8 4 - - S 1022,3 0 0,0
15.09.2018 22:00:00 13,6 10,6 - - 8 4 - - S 1022,5 0 0,0
15.09.2018 21:00:00 14,6 10,8 - - 9 5 - - SSW 1022,9 0 0,0
15.09.2018 20:00:00 15,3 10,6 - - 8 4 - - SW 1022,9 0 0,0
15.09.2018 19:00:00 16,6 10,7 - - 5 3 - - WSW 1022,5 0 0,0
15.09.2018 18:00:00 17,4 10,3 - - 8 4 - - WSW 1022,3 0 -
15.09.2018 17:00:00 17,7 9,8 - - 9 5 - - SSW 1022,7 0 0,0
15.09.2018 16:00:00 18,0 9,7 - - 11 6 - - WSW 1023,2 18 0,0
15.09.2018 15:00:00 18,5 9,7 - - 15 8 - - WSW 1023,5 42 0,0
15.09.2018 14:00:00 18,1 10,3 - - 18 10 - - W 1023,8 30 0,0
15.09.2018 13:00:00 17,7 10,9 - - 18 10 - - W 1024,0 6 0,0
15.09.2018 12:00:00 17,0 11,4 - - 16 9 - - W 1024,2 30 0,0
15.09.2018 11:00:00 16,3 12,0 - - 9 5 - - WSW 1024,1 54 0,0
15.09.2018 10:00:00 13,7 12,8 13,7 15,2 13 7 - - SW 1024,3 48 0,0
15.09.2018 09:00:00 12,0 11,9 - - 9 5 - - S 1024,4 36 0,0
15.09.2018 08:00:00 10,8 10,6 - - 5 3 - - SSW 1023,9 30 0,0
15.09.2018 07:00:00 10,2 10,1 - - 5 3 - - SSW 1023,4 0 0,0
15.09.2018 06:00:00 11,0 10,8 - - 11 6 - - SW 1023,2 0 0,0
15.09.2018 05:00:00 10,7 10,5 - - 11 6 - - SW 1022,8 0 0,0
15.09.2018 04:00:00 10,9 10,6 - - 9 5 - - SW 1022,6 0 0,0
15.09.2018 03:00:00 10,8 10,5 - - 8 4 - - SW 1022,5 0 0,0
15.09.2018 02:00:00 11,2 10,7 - - 5 3 - - SW 1022,8 0 0,0
15.09.2018 01:00:00 11,8 11,1 - - 11 6 - - WSW 1022,6 - 0,0
15.09.2018 00:00:00 12,1 11,4 - - 11 6 - - SW 1022,4 0 0,0
14.09.2018 23:00:00 12,6 11,4 - - 13 7 - - SW 1022,2 0 0,0
14.09.2018 22:00:00 13,0 11,6 - - 11 6 - - WSW 1021,8 0 0,0
14.09.2018 21:00:00 13,7 11,4 - - 16 9 - - WSW 1021,4 0 0,0
14.09.2018 20:00:00 14,1 11,1 - - 18 10 - - W 1020,8 0 0,0
14.09.2018 19:00:00 15,0 10,8 - - 18 10 - - WSW 1020,3 18 0,0
14.09.2018 18:00:00 15,7 10,3 - - 22 12 - - W 1020,1 54 0,0
14.09.2018 17:00:00 16,4 11,1 - - 21 11 - - W 1020,1 24 0,0

tt = Température de l'air
td = dewpoint
tt -20cm = Température de l'air -20cm
tt -100cm = Température de l'air -100cm
ff = Vitesse du vent
fx = gusts
dd = Direction du vent
ppp = reduced air pressure
sd = Ensoleillement
rr = Quantités de précipitations

stations d'obs. à proximité